プラハ の空港の天気 - METARとTAF

ルズィニエ国際空港(プラハ) ( LKPR / PRG ) - チェコ プラハ
飛行場実況気象(Metar)
観測時間02/26 04:00 CET (02/26 03:00 UTC)
風向・風速北 2m/s
視程10km以上
天気現象
全天の8割程度の雲 雲底高度 1070m
気温-12℃
湿度72%
気圧1023hPa
METARLKPR 260300Z 35004KT 9999 BKN035 M12/M16 Q1023 NOSIG
過去の天気等 Google飛行場航空写真 Wunderground天気予報

過去48時間のMETAR

飛行場予報(TAF)
発表時間: 2/26 00:00 CET (2/25 23:00 UTC)
予報対象時間: 26日1時 CET ~ 27日7時 CET
風向・風速北東 4m/s
視程10km以上
なし
26日5時 CET ~ 26日8時 CET に徐々に
視程10km以上
全天の8割程度の雲 雲底高度 910m
26日23時 CET ~ 27日7時 CET に一時的に
全天の4割程度の雲 雲底高度 910m
TAF LKPR 252300Z 2600/2706 04008KT CAVOK
BECMG 2604/2607 9999 BKN030
TEMPO 2622/2706 SCT030